Time;durP1;ratioP1;P1;durP2;ratioP2;P2;SDS_P1;SDS_P2;PMS_P1;PMS_P2;Temp;Humidity;BMP_temperature;BMP_pressure;BME280_temperature;BME280_humidity;BME280_pressure;Samples;Min_cycle;Max_cycle;Signal;HPM_P1;HPM_P2
2022/11/04 00:00:25;;;;;;;7.50;1.67;;;;;;;;;;5092326;28;20052;-74
2022/11/04 00:02:50;;;;;;;10.75;1.60;;;;;;;;;;5092127;28;20020;-74
2022/11/04 00:05:15;;;;;;;9.25;1.25;;;;;;;;;;5092454;28;20034;-74
2022/11/04 00:12:23;;;;;;;12.38;1.50;;;;;;;;;;5092173;28;20035;-74
2022/11/04 00:13:10;;;;;;;8.95;1.92;;;;;;;;;;5091781;28;20598;-74
2022/11/04 00:18:20;;;;;;;11.00;1.70;;;;;;;;;;5092025;28;20119;-74
2022/11/04 00:29:07;;;;;;;12.73;1.80;;;;;;;;;;5091729;28;20152;-74
2022/11/04 00:34:17;;;;;;;9.63;1.60;;;;;;;;;;5091533;28;20081;-74
2022/11/04 00:36:42;;;;;;;12.75;2.10;;;;;;;;;;5091342;28;20028;-74
2022/11/04 00:39:07;;;;;;;10.13;1.70;;;;;;;;;;5091448;28;20073;-74
2022/11/04 00:41:33;;;;;;;9.77;1.60;;;;;;;;;;5091042;28;20475;-74
2022/11/04 00:44:01;;;;;;;9.93;1.70;;;;;;;;;;5091248;28;20020;-74
2022/11/04 00:46:29;;;;;;;14.02;1.77;;;;;;;;;;5091204;28;20111;-74
2022/11/04 00:48:54;;;;;;;9.18;1.60;;;;;;;;;;5091383;28;20024;-74
2022/11/04 00:51:20;;;;;;;10.48;1.40;;;;;;;;;;5091167;28;20028;-74
2022/11/04 00:53:46;;;;;;;14.77;1.70;;;;;;;;;;5091323;28;20032;-74
2022/11/04 00:56:11;;;;;;;15.68;2.22;;;;;;;;;;5091139;28;20055;-74
2022/11/04 00:58:37;;;;;;;13.13;1.80;;;;;;;;;;5090870;28;20049;-74
2022/11/04 01:01:07;;;;;;;10.27;1.92;;;;;;;;;;5072882;28;20089;-74
2022/11/04 01:03:32;;;;;;;11.50;2.10;;;;;;;;;;5072767;28;20169;-74
2022/11/04 01:05:58;;;;;;;11.05;1.65;;;;;;;;;;5090733;28;20086;-74
2022/11/04 01:08:23;;;;;;;9.30;1.80;;;;;;;;;;5090880;28;20028;-74
2022/11/04 01:10:48;;;;;;;14.55;1.50;;;;;;;;;;5091108;28;20509;-75
2022/11/04 01:13:14;;;;;;;12.27;1.55;;;;;;;;;;5090509;28;20027;-74
2022/11/04 01:15:39;;;;;;;9.60;1.50;;;;;;;;;;5090608;28;20028;-74
2022/11/04 01:18:05;;;;;;;10.88;1.50;;;;;;;;;;5090563;28;20026;-74
2022/11/04 01:20:32;;;;;;;13.27;1.88;;;;;;;;;;5089989;28;20051;-73
2022/11/04 01:22:58;;;;;;;12.10;1.48;;;;;;;;;;5090561;28;20115;-74
2022/11/04 01:25:24;;;;;;;12.88;1.63;;;;;;;;;;5072577;28;20115;-74
2022/11/04 01:27:49;;;;;;;14.20;1.55;;;;;;;;;;5090526;28;20028;-74
2022/11/04 01:30:15;;;;;;;13.13;1.60;;;;;;;;;;5072430;28;20027;-74
2022/11/04 01:32:40;;;;;;;12.48;1.35;;;;;;;;;;5090533;28;20020;-74
2022/11/04 01:35:06;;;;;;;15.13;1.98;;;;;;;;;;5072132;28;20031;-74
2022/11/04 01:37:31;;;;;;;12.73;1.65;;;;;;;;;;5090353;28;20027;-74
2022/11/04 01:39:57;;;;;;;10.98;1.52;;;;;;;;;;5090355;28;20380;-75
2022/11/04 01:42:22;;;;;;;11.45;1.70;;;;;;;;;;5090055;28;20414;-74
2022/11/04 01:44:51;;;;;;;12.48;1.40;;;;;;;;;;5090169;28;20077;-74
2022/11/04 01:47:18;;;;;;;10.32;1.50;;;;;;;;;;5072001;28;20038;-74
2022/11/04 01:49:48;;;;;;;12.68;1.52;;;;;;;;;;5090275;28;20020;-74
2022/11/04 01:52:21;;;;;;;8.30;1.42;;;;;;;;;;5090097;28;20039;-74
2022/11/04 01:54:49;;;;;;;9.95;1.52;;;;;;;;;;5071991;28;20051;-75
2022/11/04 01:57:24;;;;;;;9.68;1.23;;;;;;;;;;5089596;28;20055;-74
2022/11/04 01:59:50;;;;;;;13.38;1.33;;;;;;;;;;5090588;28;20048;-74
2022/11/04 02:02:15;;;;;;;10.43;1.75;;;;;;;;;;5089921;28;20075;-74
2022/11/04 02:04:42;;;;;;;9.30;1.58;;;;;;;;;;5090339;28;20474;-74
2022/11/04 02:07:09;;;;;;;11.25;1.80;;;;;;;;;;5071949;28;20032;-74
2022/11/04 02:09:37;;;;;;;8.55;1.50;;;;;;;;;;5089944;28;20024;-74
2022/11/04 02:14:48;;;;;;;12.07;1.58;;;;;;;;;;5090161;28;20575;-74
2022/11/04 02:17:26;;;;;;;7.38;1.20;;;;;;;;;;5089978;28;20035;-74
2022/11/04 02:20:19;;;;;;;7.78;1.35;;;;;;;;;;5090123;28;20515;-74
2022/11/04 02:22:47;;;;;;;9.13;1.23;;;;;;;;;;5089960;28;20040;-74
2022/11/04 02:25:44;;;;;;;6.53;1.48;;;;;;;;;;5089767;28;20530;-74
2022/11/04 02:28:13;;;;;;;7.97;1.05;;;;;;;;;;5071461;28;20032;-75
2022/11/04 02:30:51;;;;;;;8.77;1.23;;;;;;;;;;5090588;28;20024;-75
2022/11/04 02:33:40;;;;;;;8.27;1.17;;;;;;;;;;5093814;28;20487;-74
2022/11/04 02:36:28;;;;;;;6.57;1.33;;;;;;;;;;5093834;28;20368;-74
2022/11/04 02:38:59;;;;;;;7.93;1.23;;;;;;;;;;5075298;28;20020;-74
2022/11/04 02:41:44;;;;;;;9.13;1.33;;;;;;;;;;5093758;28;20024;-74
2022/11/04 02:44:24;;;;;;;8.68;1.40;;;;;;;;;;5093475;28;20120;-74
2022/11/04 02:47:12;;;;;;;10.60;1.20;;;;;;;;;;5093925;28;20063;-74
2022/11/04 02:49:44;;;;;;;9.60;1.20;;;;;;;;;;5093424;28;20066;-74
2022/11/04 02:52:15;;;;;;;6.85;1.60;;;;;;;;;;5093575;28;20024;-74
2022/11/04 02:54:46;;;;;;;7.60;1.17;;;;;;;;;;5093243;28;20051;-74
2022/11/04 02:57:18;;;;;;;6.65;1.20;;;;;;;;;;5093204;28;20065;-74
2022/11/04 03:00:06;;;;;;;7.00;1.08;;;;;;;;;;5093431;28;20175;-74
2022/11/04 03:02:40;;;;;;;4.32;0.90;;;;;;;;;;5075348;28;20034;-74
2022/11/04 03:05:11;;;;;;;7.03;1.00;;;;;;;;;;5074791;28;20387;-74
2022/11/04 03:07:40;;;;;;;7.43;1.00;;;;;;;;;;5093500;28;20464;-74
2022/11/04 03:10:15;;;;;;;6.53;1.23;;;;;;;;;;5093191;28;20028;-74
2022/11/04 03:12:50;;;;;;;7.00;1.55;;;;;;;;;;5093097;28;20219;-74
2022/11/04 03:15:23;;;;;;;8.30;1.60;;;;;;;;;;5092739;28;20032;-74
2022/11/04 03:17:55;;;;;;;6.75;1.10;;;;;;;;;;5074793;28;20031;-74
2022/11/04 03:20:26;;;;;;;5.22;1.20;;;;;;;;;;5093026;28;20024;-74
2022/11/04 03:22:58;;;;;;;6.43;1.08;;;;;;;;;;5093106;28;20020;-74
2022/11/04 03:25:28;;;;;;;9.35;1.40;;;;;;;;;;5092798;28;20028;-74
2022/11/04 03:28:03;;;;;;;10.13;1.17;;;;;;;;;;5092735;28;20020;-74
2022/11/04 03:30:36;;;;;;;13.23;1.65;;;;;;;;;;5093170;28;20118;-74
2022/11/04 03:33:14;;;;;;;10.98;1.27;;;;;;;;;;5092873;28;20020;-75
2022/11/04 03:35:40;;;;;;;4.88;0.98;;;;;;;;;;5074517;28;20055;-74
2022/11/04 03:38:05;;;;;;;13.07;1.73;;;;;;;;;;5092681;28;20066;-74
2022/11/04 03:40:31;;;;;;;8.38;1.30;;;;;;;;;;5092480;28;20024;-74
2022/11/04 03:43:08;;;;;;;10.18;1.55;;;;;;;;;;5091894;28;20020;-74
2022/11/04 03:45:34;;;;;;;12.25;1.40;;;;;;;;;;5092202;28;20499;-74
2022/11/04 03:48:00;;;;;;;9.93;1.60;;;;;;;;;;5092503;28;20111;-74
2022/11/04 03:50:28;;;;;;;10.82;1.50;;;;;;;;;;5092325;28;20115;-74
2022/11/04 03:52:54;;;;;;;9.25;1.50;;;;;;;;;;5092739;28;20116;-74
2022/11/04 03:55:23;;;;;;;10.57;1.10;;;;;;;;;;5073566;28;20048;-74
2022/11/04 03:57:56;;;;;;;11.40;1.70;;;;;;;;;;5092540;28;20375;-74
2022/11/04 04:00:24;;;;;;;7.40;1.23;;;;;;;;;;5092501;28;20043;-74
2022/11/04 04:02:59;;;;;;;10.02;1.40;;;;;;;;;;5092351;28;20035;-74
2022/11/04 04:05:51;;;;;;;11.90;1.40;;;;;;;;;;5091702;28;20077;-74
2022/11/04 04:08:51;;;;;;;13.40;1.50;;;;;;;;;;5092137;28;20024;-74
2022/11/04 04:11:29;;;;;;;10.45;1.40;;;;;;;;;;5059609;28;20128;-74
2022/11/04 04:14:01;;;;;;;12.77;1.58;;;;;;;;;;5092108;28;20061;-75
2022/11/04 04:16:40;;;;;;;10.98;1.35;;;;;;;;;;5073896;28;20032;-74
2022/11/04 04:19:14;;;;;;;7.45;1.35;;;;;;;;;;5091714;28;20036;-74
2022/11/04 04:21:45;;;;;;;10.32;1.55;;;;;;;;;;5092146;28;20027;-74
2022/11/04 04:29:44;;;;;;;10.48;1.63;;;;;;;;;;5091920;28;20180;-74
2022/11/04 04:32:12;;;;;;;11.73;1.40;;;;;;;;;;5091865;28;20048;-74
2022/11/04 04:34:37;;;;;;;9.63;1.55;;;;;;;;;;5091531;28;20427;-74
2022/11/04 04:37:07;;;;;;;7.80;1.20;;;;;;;;;;5091728;28;20028;-74
2022/11/04 04:45:26;;;;;;;11.82;1.80;;;;;;;;;;5090994;28;20073;-75
2022/11/04 04:47:55;;;;;;;15.27;1.80;;;;;;;;;;5091658;28;20538;-74
2022/11/04 04:50:21;;;;;;;13.60;2.08;;;;;;;;;;5091298;28;20028;-74
2022/11/04 04:52:52;;;;;;;12.00;1.90;;;;;;;;;;5073257;28;20471;-74
2022/11/04 04:55:18;;;;;;;10.52;1.40;;;;;;;;;;5072425;28;20507;-75
2022/11/04 04:57:43;;;;;;;5.30;1.02;;;;;;;;;;5091425;28;20063;-74
2022/11/04 05:00:13;;;;;;;10.90;1.23;;;;;;;;;;5091275;28;20120;-74
2022/11/04 05:02:38;;;;;;;10.80;1.48;;;;;;;;;;5091258;28;20020;-74
2022/11/04 05:05:04;;;;;;;11.32;1.67;;;;;;;;;;5090913;28;20449;-75
2022/11/04 05:07:30;;;;;;;8.52;1.45;;;;;;;;;;5091009;28;20039;-74
2022/11/04 05:09:55;;;;;;;7.15;1.30;;;;;;;;;;5072526;28;20024;-74
2022/11/04 05:12:20;;;;;;;9.13;1.40;;;;;;;;;;5091014;28;20080;-74
2022/11/04 05:14:46;;;;;;;15.05;1.40;;;;;;;;;;5090790;28;20401;-74
2022/11/04 05:17:11;;;;;;;10.73;1.25;;;;;;;;;;5090655;28;20024;-75
2022/11/04 05:19:37;;;;;;;12.60;1.48;;;;;;;;;;5090518;28;20119;-75
2022/11/04 05:22:03;;;;;;;8.07;1.23;;;;;;;;;;5091319;28;20020;-74
2022/11/04 05:24:29;;;;;;;10.65;1.85;;;;;;;;;;5090426;28;20028;-74
2022/11/04 05:26:54;;;;;;;6.88;1.50;;;;;;;;;;5072303;28;20028;-74
2022/11/04 05:29:20;;;;;;;9.52;1.42;;;;;;;;;;5090579;28;20289;-74
2022/11/04 05:31:45;;;;;;;6.97;1.13;;;;;;;;;;5090692;28;20039;-75
2022/11/04 05:34:11;;;;;;;8.15;1.33;;;;;;;;;;5090962;28;20021;-74
2022/11/04 05:36:37;;;;;;;8.48;1.42;;;;;;;;;;5090123;28;20563;-75
2022/11/04 05:39:03;;;;;;;7.75;1.45;;;;;;;;;;5091108;28;20251;-74
2022/11/04 05:41:28;;;;;;;14.40;1.33;;;;;;;;;;5072098;28;20185;-74
2022/11/04 05:43:56;;;;;;;8.77;0.98;;;;;;;;;;5090329;28;20030;-74
2022/11/04 05:46:22;;;;;;;9.05;1.13;;;;;;;;;;5090017;28;20024;-75
2022/11/04 05:48:48;;;;;;;7.00;1.30;;;;;;;;;;5090383;28;20066;-74
2022/11/04 05:51:19;;;;;;;8.73;1.10;;;;;;;;;;5090151;28;20048;-74
2022/11/04 05:53:44;;;;;;;9.73;1.30;;;;;;;;;;5090466;28;20177;-74
2022/11/04 05:56:10;;;;;;;10.98;1.30;;;;;;;;;;5089692;28;20685;-74
2022/11/04 05:58:35;;;;;;;9.40;1.17;;;;;;;;;;5090519;28;20024;-74
2022/11/04 06:01:30;;;;;;;10.45;1.05;;;;;;;;;;5071814;28;20171;-74
2022/11/04 06:03:57;;;;;;;11.82;1.40;;;;;;;;;;5090116;28;20069;-74
2022/11/04 06:06:24;;;;;;;4.40;1.00;;;;;;;;;;5089535;28;20518;-74
2022/11/04 06:08:51;;;;;;;5.65;1.10;;;;;;;;;;5090465;28;20062;-74
2022/11/04 06:11:17;;;;;;;8.35;1.30;;;;;;;;;;5089944;28;20028;-74
2022/11/04 06:13:43;;;;;;;9.57;1.30;;;;;;;;;;5071761;28;20035;-74
2022/11/04 06:16:08;;;;;;;7.30;1.17;;;;;;;;;;5089860;28;20028;-74
2022/11/04 06:18:34;;;;;;;8.90;1.63;;;;;;;;;;5089905;28;20066;-74
2022/11/04 06:21:06;;;;;;;8.55;1.20;;;;;;;;;;5089785;28;20434;-74
2022/11/04 06:23:31;;;;;;;9.50;1.35;;;;;;;;;;5071929;28;20415;-74
2022/11/04 06:25:57;;;;;;;9.23;1.13;;;;;;;;;;5089739;28;20601;-74
2022/11/04 06:28:22;;;;;;;4.93;1.00;;;;;;;;;;5089722;28;20028;-74
2022/11/04 06:30:47;;;;;;;8.57;1.10;;;;;;;;;;5090261;28;20032;-74
2022/11/04 06:33:13;;;;;;;9.05;1.10;;;;;;;;;;5089885;28;20024;-73
2022/11/04 06:35:38;;;;;;;3.10;0.80;;;;;;;;;;5089658;28;20028;-74
2022/11/04 06:38:04;;;;;;;4.15;0.85;;;;;;;;;;5089934;28;20025;-74
2022/11/04 06:40:29;;;;;;;6.43;1.10;;;;;;;;;;5089639;28;20046;-74
2022/11/04 06:42:55;;;;;;;9.07;1.38;;;;;;;;;;5089652;28;20020;-75
2022/11/04 06:45:20;;;;;;;4.78;0.98;;;;;;;;;;5089706;28;20016;-74
2022/11/04 06:47:46;;;;;;;5.88;1.02;;;;;;;;;;5089676;28;20093;-74
2022/11/04 06:50:11;;;;;;;8.70;1.20;;;;;;;;;;5089897;28;20028;-74
2022/11/04 06:52:37;;;;;;;6.75;1.42;;;;;;;;;;5089548;28;20282;-74
2022/11/04 06:55:02;;;;;;;7.38;1.13;;;;;;;;;;5089579;28;20028;-74
2022/11/04 06:57:28;;;;;;;7.47;1.08;;;;;;;;;;5089053;28;20520;-74
2022/11/04 06:59:53;;;;;;;7.95;1.23;;;;;;;;;;5089697;28;20044;-74
2022/11/04 07:02:19;;;;;;;7.60;1.40;;;;;;;;;;5089303;28;20028;-74
2022/11/04 07:04:44;;;;;;;6.57;1.00;;;;;;;;;;5071485;28;20032;-74
2022/11/04 07:07:09;;;;;;;5.13;0.88;;;;;;;;;;5070950;28;20027;-74
2022/11/04 07:09:35;;;;;;;9.18;1.20;;;;;;;;;;5089697;28;20035;-74
2022/11/04 07:12:00;;;;;;;8.30;1.00;;;;;;;;;;5089206;28;20032;-74
2022/11/04 07:14:26;;;;;;;4.55;0.77;;;;;;;;;;5089445;28;20555;-74
2022/11/04 07:16:51;;;;;;;9.15;1.17;;;;;;;;;;5089041;28;20035;-74
2022/11/04 07:19:17;;;;;;;7.60;0.98;;;;;;;;;;5092379;28;20032;-74
2022/11/04 07:21:42;;;;;;;4.85;0.60;;;;;;;;;;5093038;28;20028;-74
2022/11/04 07:24:08;;;;;;;2.33;0.50;;;;;;;;;;5093257;28;20028;-74
2022/11/04 07:26:33;;;;;;;3.40;0.60;;;;;;;;;;5092807;28;20067;-74
2022/11/04 07:28:59;;;;;;;3.88;0.73;;;;;;;;;;5093305;28;20031;-74
2022/11/04 07:31:25;;;;;;;4.25;0.73;;;;;;;;;;5092754;28;20042;-74
2022/11/04 07:33:50;;;;;;;2.50;0.60;;;;;;;;;;5092915;28;20028;-74
2022/11/04 07:36:17;;;;;;;3.45;0.60;;;;;;;;;;5092607;28;20024;-74
2022/11/04 07:38:42;;;;;;;3.72;0.70;;;;;;;;;;5093151;28;20035;-74
2022/11/04 07:41:08;;;;;;;5.95;0.95;;;;;;;;;;5092481;28;20036;-74
2022/11/04 07:43:33;;;;;;;4.15;0.90;;;;;;;;;;5092579;28;20036;-74
2022/11/04 07:46:00;;;;;;;5.20;0.80;;;;;;;;;;5092547;28;20032;-74
2022/11/04 07:48:25;;;;;;;2.13;0.47;;;;;;;;;;5074273;28;20123;-74
2022/11/04 07:50:54;;;;;;;3.50;0.57;;;;;;;;;;5092535;28;20158;-74
2022/11/04 07:53:20;;;;;;;2.20;0.60;;;;;;;;;;5092398;28;20039;-74
2022/11/04 07:55:48;;;;;;;3.92;0.70;;;;;;;;;;5092414;28;20119;-74
2022/11/04 07:58:13;;;;;;;2.00;0.50;;;;;;;;;;5091940;28;20043;-74
2022/11/04 08:00:39;;;;;;;2.22;0.40;;;;;;;;;;5092421;28;20024;-74
2022/11/04 08:03:04;;;;;;;1.95;0.50;;;;;;;;;;5092149;28;20490;-74
2022/11/04 08:05:29;;;;;;;1.77;0.40;;;;;;;;;;5092409;28;20024;-74
2022/11/04 08:07:56;;;;;;;1.55;0.40;;;;;;;;;;5091926;28;20020;-74
2022/11/04 08:10:22;;;;;;;1.88;0.40;;;;;;;;;;5092805;28;20024;-74
2022/11/04 08:12:47;;;;;;;2.95;0.60;;;;;;;;;;5073677;28;20153;-74
2022/11/04 08:15:13;;;;;;;1.00;0.30;;;;;;;;;;5092256;28;20399;-74
2022/11/04 08:17:39;;;;;;;2.92;0.45;;;;;;;;;;5073221;28;20062;-74
2022/11/04 08:20:04;;;;;;;3.67;0.90;;;;;;;;;;5092032;28;20070;-74
2022/11/04 08:22:30;;;;;;;2.13;0.30;;;;;;;;;;5091852;28;20016;-74
2022/11/04 08:24:55;;;;;;;1.75;0.50;;;;;;;;;;5092238;28;20111;-74
2022/11/04 08:27:22;;;;;;;4.38;0.50;;;;;;;;;;5073311;28;20024;-74
2022/11/04 08:29:47;;;;;;;3.78;0.90;;;;;;;;;;5091488;28;20047;-74
2022/11/04 08:32:13;;;;;;;4.05;0.52;;;;;;;;;;5073227;28;20472;-74
2022/11/04 08:34:38;;;;;;;1.98;0.63;;;;;;;;;;5091598;28;20074;-74
2022/11/04 08:37:04;;;;;;;11.35;0.85;;;;;;;;;;5091259;28;20047;-74
2022/11/04 08:39:29;;;;;;;2.70;0.63;;;;;;;;;;5073511;28;20059;-74
2022/11/04 08:41:55;;;;;;;2.95;0.60;;;;;;;;;;5091288;28;20570;-74
2022/11/04 08:44:21;;;;;;;4.47;0.50;;;;;;;;;;5091521;28;20471;-74
2022/11/04 08:46:47;;;;;;;3.28;0.60;;;;;;;;;;5091266;28;20030;-74
2022/11/04 08:49:12;;;;;;;2.10;0.65;;;;;;;;;;5091475;28;20053;-74
2022/11/04 08:51:41;;;;;;;3.53;0.50;;;;;;;;;;5091183;28;20032;-74
2022/11/04 08:54:07;;;;;;;2.38;0.60;;;;;;;;;;5091276;28;20023;-73
2022/11/04 08:56:35;;;;;;;5.85;0.70;;;;;;;;;;5091177;28;20113;-74
2022/11/04 08:59:01;;;;;;;2.40;0.60;;;;;;;;;;5091046;28;20082;-73
2022/11/04 09:01:27;;;;;;;3.40;0.90;;;;;;;;;;5091667;28;20020;-73
2022/11/04 09:03:53;;;;;;;3.60;0.50;;;;;;;;;;5090651;28;20028;-73
2022/11/04 09:06:22;;;;;;;1.92;0.60;;;;;;;;;;5091418;28;20110;-73
2022/11/04 09:08:48;;;;;;;5.82;0.80;;;;;;;;;;5091020;28;20233;-73
2022/11/04 09:11:15;;;;;;;4.78;0.88;;;;;;;;;;5072903;28;20031;-74
2022/11/04 09:13:41;;;;;;;3.35;0.70;;;;;;;;;;5091029;28;20267;-73
2022/11/04 09:16:09;;;;;;;3.88;0.85;;;;;;;;;;5091140;28;20463;-74
2022/11/04 09:18:34;;;;;;;1.20;0.50;;;;;;;;;;5090536;28;20016;-74
2022/11/04 09:21:05;;;;;;;3.60;0.60;;;;;;;;;;5072713;28;20016;-73
2022/11/04 09:23:31;;;;;;;;;;;;;;;;;;5091047;28;20039;-74
2022/11/04 09:26:01;;;;;;;1.67;0.40;;;;;;;;;;5090725;28;20421;-73
2022/11/04 09:28:27;;;;;;;3.90;0.85;;;;;;;;;;5090137;28;20028;-74
2022/11/04 09:30:52;;;;;;;3.80;0.82;;;;;;;;;;5090931;28;20468;-74
2022/11/04 09:33:18;;;;;;;4.22;0.70;;;;;;;;;;5090372;28;20023;-73
2022/11/04 09:35:53;;;;;;;2.45;0.80;;;;;;;;;;5090540;28;20031;-74
2022/11/04 09:38:19;;;;;;;3.45;0.70;;;;;;;;;;5090094;28;20031;-73
2022/11/04 09:40:44;;;;;;;3.80;0.90;;;;;;;;;;5071479;28;20028;-73
2022/11/04 09:43:36;;;;;;;4.32;1.20;;;;;;;;;;5089920;28;20024;-74
2022/11/04 09:46:02;;;;;;;7.03;1.05;;;;;;;;;;5090500;28;20062;-73
2022/11/04 09:48:36;;;;;;;11.68;0.90;;;;;;;;;;5090046;28;20055;-73
2022/11/04 09:51:04;;;;;;;3.03;0.85;;;;;;;;;;5072400;28;20024;-74
2022/11/04 09:53:47;;;;;;;5.18;1.05;;;;;;;;;;5090098;28;20024;-74
2022/11/04 09:56:16;;;;;;;6.65;1.10;;;;;;;;;;5089925;28;20048;-73
2022/11/04 09:58:42;;;;;;;2.50;0.70;;;;;;;;;;5089807;28;20396;-74
2022/11/04 10:01:13;;;;;;;5.32;0.90;;;;;;;;;;5090080;28;20031;-74
2022/11/04 10:04:21;;;;;;;7.45;0.93;;;;;;;;;;5089814;28;20456;-73
2022/11/04 10:07:10;;;;;;;3.78;0.77;;;;;;;;;;5055699;28;20040;-73
2022/11/04 10:09:56;;;;;;;6.65;0.80;;;;;;;;;;5089760;28;20081;-73
2022/11/04 10:12:36;;;;;;;8.73;1.00;;;;;;;;;;5090070;28;20024;-74
2022/11/04 10:15:26;;;;;;;6.57;1.00;;;;;;;;;;5071612;28;20164;-73
2022/11/04 10:18:07;;;;;;;6.60;1.13;;;;;;;;;;5071261;28;20035;-74
2022/11/04 10:20:50;;;;;;;5.45;1.02;;;;;;;;;;5089794;28;20024;-73
2022/11/04 10:23:29;;;;;;;6.28;1.10;;;;;;;;;;5089677;28;20024;-74
2022/11/04 10:26:09;;;;;;;5.68;0.95;;;;;;;;;;5090069;28;20024;-74
2022/11/04 10:28:44;;;;;;;7.93;1.20;;;;;;;;;;5089204;28;20509;-73
2022/11/04 10:31:15;;;;;;;5.97;1.02;;;;;;;;;;5089995;28;20556;-74
2022/11/04 10:33:55;;;;;;;3.85;0.90;;;;;;;;;;5089811;28;20048;-73
2022/11/04 10:36:22;;;;;;;6.18;0.82;;;;;;;;;;5071426;28;20032;-73
2022/11/04 10:38:54;;;;;;;10.60;1.27;;;;;;;;;;5071314;28;20115;-73
2022/11/04 10:41:25;;;;;;;12.50;1.00;;;;;;;;;;5090014;28;20107;-74
2022/11/04 10:44:02;;;;;;;9.82;1.08;;;;;;;;;;5089651;28;20114;-73
2022/11/04 10:46:44;;;;;;;9.23;1.10;;;;;;;;;;5089893;28;20025;-73
2022/11/04 10:49:42;;;;;;;6.63;1.10;;;;;;;;;;5071092;28;20039;-74
2022/11/04 10:52:09;;;;;;;7.57;0.98;;;;;;;;;;5091054;28;20041;-74
2022/11/04 10:54:43;;;;;;;7.57;1.25;;;;;;;;;;5093272;28;20027;-74
2022/11/04 10:57:11;;;;;;;7.20;1.55;;;;;;;;;;5093461;28;20515;-74
2022/11/04 10:59:57;;;;;;;9.93;1.40;;;;;;;;;;5093204;28;20035;-74
2022/11/04 11:02:43;;;;;;;4.78;1.40;;;;;;;;;;5093569;28;20023;-73
2022/11/04 11:05:17;;;;;;;6.80;1.25;;;;;;;;;;5093428;28;20080;-74
2022/11/04 11:07:47;;;;;;;7.20;1.15;;;;;;;;;;5093266;28;20074;-74
2022/11/04 11:10:20;;;;;;;11.45;1.40;;;;;;;;;;5093156;28;20055;-73
2022/11/04 11:13:21;;;;;;;10.32;1.42;;;;;;;;;;5074844;28;20392;-74
2022/11/04 11:15:48;;;;;;;11.63;1.63;;;;;;;;;;5093221;28;20024;-74
2022/11/04 11:18:16;;;;;;;10.50;1.83;;;;;;;;;;5092968;28;20060;-73
2022/11/04 11:20:48;;;;;;;8.60;1.45;;;;;;;;;;5092875;28;20020;-73
2022/11/04 11:23:32;;;;;;;9.85;1.40;;;;;;;;;;5092965;28;20020;-75
2022/11/04 11:25:58;;;;;;;15.35;1.60;;;;;;;;;;5074857;28;20051;-76
2022/11/04 11:28:25;;;;;;;9.18;1.90;;;;;;;;;;5092464;28;20106;-75
2022/11/04 11:30:54;;;;;;;11.30;1.63;;;;;;;;;;5092682;28;20024;-74
2022/11/04 11:33:26;;;;;;;13.48;1.65;;;;;;;;;;5092745;28;20056;-75
2022/11/04 11:36:10;;;;;;;11.52;1.65;;;;;;;;;;5074438;28;20028;-74
2022/11/04 11:38:37;;;;;;;12.07;1.63;;;;;;;;;;5076521;28;20028;-75
2022/11/04 11:41:07;;;;;;;12.75;1.67;;;;;;;;;;5092764;28;20042;-75
2022/11/04 11:43:35;;;;;;;7.93;1.50;;;;;;;;;;5092470;28;20056;-75
2022/11/04 11:46:02;;;;;;;9.15;1.65;;;;;;;;;;5092655;28;20024;-74
2022/11/04 11:48:27;;;;;;;11.98;1.55;;;;;;;;;;5092418;28;20205;-75
2022/11/04 11:50:58;;;;;;;18.00;2.13;;;;;;;;;;5092440;28;20103;-75
2022/11/04 11:53:25;;;;;;;14.52;2.03;;;;;;;;;;5074061;28;20368;-75
2022/11/04 11:55:51;;;;;;;12.75;1.90;;;;;;;;;;5091946;28;20040;-75
2022/11/04 11:58:30;;;;;;;12.23;1.85;;;;;;;;;;5092030;28;20086;-74
2022/11/04 12:01:00;;;;;;;10.23;1.42;;;;;;;;;;5092305;28;20028;-75
2022/11/04 12:03:42;;;;;;;14.27;2.27;;;;;;;;;;5091694;28;20055;-75
2022/11/04 12:06:14;;;;;;;11.73;1.67;;;;;;;;;;5074036;28;20071;-74
2022/11/04 12:09:07;;;;;;;17.08;2.38;;;;;;;;;;5091992;28;20034;-74
2022/11/04 12:11:58;;;;;;;9.60;1.60;;;;;;;;;;5092357;28;20036;-74
2022/11/04 12:15:05;;;;;;;11.80;1.98;;;;;;;;;;5073681;28;20036;-74
2022/11/04 12:17:37;;;;;;;14.43;2.00;;;;;;;;;;5073193;28;20495;-74
2022/11/04 12:20:17;;;;;;;13.90;2.08;;;;;;;;;;5091709;28;20495;-74
2022/11/04 12:23:02;;;;;;;7.88;1.65;;;;;;;;;;5073828;28;20420;-74
2022/11/04 12:25:37;;;;;;;12.43;1.55;;;;;;;;;;5091672;28;20134;-74
2022/11/04 12:28:23;;;;;;;13.50;1.63;;;;;;;;;;5091759;28;20024;-74
2022/11/04 12:30:54;;;;;;;11.05;1.63;;;;;;;;;;5091685;28;20101;-74
2022/11/04 12:33:37;;;;;;;8.57;1.42;;;;;;;;;;5091891;28;20115;-74
2022/11/04 12:36:32;;;;;;;14.05;1.70;;;;;;;;;;5091483;28;20081;-74
2022/11/04 12:39:54;;;;;;;7.80;1.67;;;;;;;;;;5091664;28;20056;-74
2022/11/04 12:42:46;;;;;;;12.18;1.50;;;;;;;;;;4989325;28;20089;-74
2022/11/04 12:45:55;;;;;;;8.98;1.60;;;;;;;;;;4981201;28;20101;-74
2022/11/04 12:48:59;;;;;;;10.57;1.88;;;;;;;;;;5066421;28;20494;-74
2022/11/04 12:51:45;;;;;;;8.70;1.40;;;;;;;;;;5091344;28;20602;-74
2022/11/04 12:54:23;;;;;;;7.78;1.65;;;;;;;;;;5091444;28;20063;-74
2022/11/04 12:57:04;;;;;;;7.22;1.30;;;;;;;;;;5090803;28;20044;-74
2022/11/04 13:00:07;;;;;;;10.20;1.30;;;;;;;;;;5090900;28;20120;-74
2022/11/04 13:02:47;;;;;;;9.77;1.25;;;;;;;;;;5091633;28;20145;-74
2022/11/04 13:05:46;;;;;;;6.82;1.10;;;;;;;;;;5090876;28;20024;-74
2022/11/04 13:08:19;;;;;;;7.03;1.45;;;;;;;;;;5072875;28;20505;-74
2022/11/04 13:11:05;;;;;;;9.88;1.30;;;;;;;;;;5090824;28;20043;-74
2022/11/04 13:13:36;;;;;;;7.78;1.30;;;;;;;;;;5073035;28;20090;-74
2022/11/04 13:16:08;;;;;;;12.75;1.63;;;;;;;;;;5089722;28;20028;-74
2022/11/04 13:18:37;;;;;;;6.93;1.35;;;;;;;;;;5072559;28;20020;-74
2022/11/04 13:21:20;;;;;;;9.38;1.65;;;;;;;;;;5090553;28;20024;-74
2022/11/04 13:24:03;;;;;;;11.90;1.80;;;;;;;;;;5072605;28;20089;-74
2022/11/04 13:26:29;;;;;;;11.45;1.38;;;;;;;;;;5090783;28;20305;-74
2022/11/04 13:29:06;;;;;;;9.77;1.70;;;;;;;;;;5090804;28;20020;-74
2022/11/04 13:31:59;;;;;;;10.73;1.58;;;;;;;;;;5072238;28;20031;-74
2022/11/04 13:34:43;;;;;;;8.65;1.30;;;;;;;;;;5072218;28;20092;-74
2022/11/04 13:37:36;;;;;;;9.32;1.38;;;;;;;;;;5090164;28;20027;-74
2022/11/04 13:40:15;;;;;;;9.65;1.60;;;;;;;;;;5090012;28;20078;-74
2022/11/04 13:42:49;;;;;;;11.73;1.42;;;;;;;;;;5090528;28;20107;-74
2022/11/04 13:45:19;;;;;;;13.90;1.63;;;;;;;;;;5071915;28;20024;-74
2022/11/04 13:47:54;;;;;;;6.68;1.52;;;;;;;;;;5090614;28;20107;-74
2022/11/04 13:50:31;;;;;;;10.00;1.88;;;;;;;;;;5089968;28;20488;-74
2022/11/04 13:52:57;;;;;;;8.18;1.65;;;;;;;;;;5090437;28;20048;-74
2022/11/04 13:55:22;;;;;;;10.75;1.63;;;;;;;;;;5089891;28;20051;-74
2022/11/04 13:57:52;;;;;;;11.43;1.75;;;;;;;;;;5089983;28;20080;-74
2022/11/04 14:00:22;;;;;;;8.53;1.50;;;;;;;;;;5090229;28;20050;-74
2022/11/04 14:02:56;;;;;;;13.00;2.00;;;;;;;;;;5090232;28;20028;-74
2022/11/04 14:05:28;;;;;;;14.45;1.80;;;;;;;;;;5090150;28;20069;-74
2022/11/04 14:08:00;;;;;;;11.77;1.65;;;;;;;;;;5090296;28;20024;-74
2022/11/04 14:10:47;;;;;;;11.35;1.60;;;;;;;;;;5089802;28;20025;-74
2022/11/04 14:13:41;;;;;;;9.82;1.38;;;;;;;;;;5090077;28;20063;-74
2022/11/04 14:16:16;;;;;;;12.35;1.63;;;;;;;;;;5080003;28;20456;-74
2022/11/04 14:18:44;;;;;;;12.10;1.85;;;;;;;;;;5089908;28;20024;-74
2022/11/04 14:21:11;;;;;;;9.93;1.60;;;;;;;;;;5089661;28;20032;-74
2022/11/04 14:23:39;;;;;;;7.45;1.55;;;;;;;;;;5090019;28;20031;-74
2022/11/04 14:26:08;;;;;;;8.52;1.33;;;;;;;;;;5089962;28;20045;-74
2022/11/04 14:28:34;;;;;;;7.97;1.50;;;;;;;;;;5094082;28;20032;-74
2022/11/04 14:31:09;;;;;;;9.90;1.92;;;;;;;;;;5093716;28;20479;-74
2022/11/04 14:33:49;;;;;;;10.10;1.50;;;;;;;;;;5094022;28;20019;-74
2022/11/04 14:36:20;;;;;;;8.10;1.42;;;;;;;;;;5093549;28;20066;-74
2022/11/04 14:39:03;;;;;;;7.95;1.38;;;;;;;;;;5094119;28;20031;-74
2022/11/04 14:41:49;;;;;;;14.95;1.88;;;;;;;;;;5093718;28;20383;-74
2022/11/04 14:44:31;;;;;;;6.38;1.55;;;;;;;;;;5094183;28;20038;-74
2022/11/04 14:47:20;;;;;;;8.23;1.20;;;;;;;;;;5093980;28;20028;-74
2022/11/04 14:49:51;;;;;;;9.45;1.50;;;;;;;;;;5093934;28;20429;-74
2022/11/04 14:52:29;;;;;;;7.18;1.27;;;;;;;;;;5093539;28;20483;-74
2022/11/04 14:55:06;;;;;;;8.38;1.30;;;;;;;;;;5093633;28;20112;-74
2022/11/04 14:58:21;;;;;;;6.10;1.30;;;;;;;;;;5074946;28;20519;-74
2022/11/04 15:00:47;;;;;;;9.48;1.30;;;;;;;;;;4974696;28;20042;-74
2022/11/04 15:03:23;;;;;;;7.13;1.20;;;;;;;;;;5080431;28;20048;-74
2022/11/04 15:05:59;;;;;;;12.20;1.40;;;;;;;;;;5093531;28;20020;-74
2022/11/04 15:08:41;;;;;;;6.13;1.05;;;;;;;;;;5093315;28;20024;-74
2022/11/04 15:12:49;;;;;;;8.02;1.60;;;;;;;;;;5092967;28;20107;-74
2022/11/04 15:14:21;;;;;;;6.75;1.23;;;;;;;;;;5093139;28;20433;-74
2022/11/04 15:16:50;;;;;;;7.13;1.13;;;;;;;;;;5093269;28;20024;-74
2022/11/04 15:19:32;;;;;;;11.40;1.33;;;;;;;;;;5074766;28;20069;-74
2022/11/04 15:22:00;;;;;;;6.90;1.20;;;;;;;;;;5092925;28;20115;-74
2022/11/04 15:24:26;;;;;;;8.30;1.85;;;;;;;;;;5093594;28;20523;-74
2022/11/04 15:26:53;;;;;;;6.95;1.58;;;;;;;;;;5093029;28;20051;-74
2022/11/04 15:29:22;;;;;;;6.88;1.48;;;;;;;;;;5074517;28;20024;-74
2022/11/04 15:32:06;;;;;;;9.35;1.20;;;;;;;;;;5074395;28;20036;-74
2022/11/04 15:34:34;;;;;;;7.38;1.30;;;;;;;;;;5074347;28;20060;-74
2022/11/04 15:37:04;;;;;;;5.38;1.27;;;;;;;;;;5092631;28;20539;-74